sensor_id;sensor_type;location;lat;lon;timestamp;P1;durP1;ratioP1;P2;durP2;ratioP2
33740;SDS011;20065;48.380;10.892;2022-09-09T00:03:59;3.00;;;1.27;;
33740;SDS011;20065;48.380;10.892;2022-09-09T00:07:01;4.20;;;1.50;;
33740;SDS011;20065;48.380;10.892;2022-09-09T00:16:15;6.20;;;1.80;;
33740;SDS011;20065;48.380;10.892;2022-09-09T00:25:46;4.83;;;1.60;;
33740;SDS011;20065;48.380;10.892;2022-09-09T00:28:52;3.80;;;1.80;;
33740;SDS011;20065;48.380;10.892;2022-09-09T00:31:49;4.80;;;1.77;;
33740;SDS011;20065;48.380;10.892;2022-09-09T00:34:46;4.60;;;2.07;;
33740;SDS011;20065;48.380;10.892;2022-09-09T00:37:38;6.97;;;2.00;;
33740;SDS011;20065;48.380;10.892;2022-09-09T00:46:21;8.43;;;2.10;;
33740;SDS011;20065;48.380;10.892;2022-09-09T00:56:25;8.13;;;2.20;;
33740;SDS011;20065;48.380;10.892;2022-09-09T00:59:24;4.67;;;2.30;;
33740;SDS011;20065;48.380;10.892;2022-09-09T01:02:21;7.90;;;2.33;;
33740;SDS011;20065;48.380;10.892;2022-09-09T01:05:34;6.60;;;2.20;;
33740;SDS011;20065;48.380;10.892;2022-09-09T01:14:52;6.90;;;2.87;;
33740;SDS011;20065;48.380;10.892;2022-09-09T01:26:51;6.93;;;2.50;;
33740;SDS011;20065;48.380;10.892;2022-09-09T01:29:44;4.17;;;2.30;;
33740;SDS011;20065;48.380;10.892;2022-09-09T01:32:41;7.27;;;2.73;;
33740;SDS011;20065;48.380;10.892;2022-09-09T01:38:43;5.37;;;2.50;;
33740;SDS011;20065;48.380;10.892;2022-09-09T01:41:29;6.87;;;2.90;;
33740;SDS011;20065;48.380;10.892;2022-09-09T01:44:25;5.97;;;2.37;;
33740;SDS011;20065;48.380;10.892;2022-09-09T01:47:12;7.93;;;3.07;;
33740;SDS011;20065;48.380;10.892;2022-09-09T01:50:15;5.33;;;2.30;;
33740;SDS011;20065;48.380;10.892;2022-09-09T01:53:03;7.60;;;3.17;;
33740;SDS011;20065;48.380;10.892;2022-09-09T01:55:55;5.80;;;2.90;;
33740;SDS011;20065;48.380;10.892;2022-09-09T02:02:13;7.10;;;3.50;;
33740;SDS011;20065;48.380;10.892;2022-09-09T02:11:23;8.00;;;2.57;;
33740;SDS011;20065;48.380;10.892;2022-09-09T02:14:19;4.93;;;2.80;;
33740;SDS011;20065;48.380;10.892;2022-09-09T02:17:11;6.37;;;2.93;;
33740;SDS011;20065;48.380;10.892;2022-09-09T02:20:15;6.53;;;2.70;;
33740;SDS011;20065;48.380;10.892;2022-09-09T02:23:07;5.30;;;2.70;;
33740;SDS011;20065;48.380;10.892;2022-09-09T02:25:55;4.67;;;2.40;;
33740;SDS011;20065;48.380;10.892;2022-09-09T02:28:44;6.33;;;3.00;;
33740;SDS011;20065;48.380;10.892;2022-09-09T02:31:32;5.60;;;2.37;;
33740;SDS011;20065;48.380;10.892;2022-09-09T02:34:25;6.60;;;2.70;;
33740;SDS011;20065;48.380;10.892;2022-09-09T02:37:15;4.00;;;2.70;;
33740;SDS011;20065;48.380;10.892;2022-09-09T02:40:08;7.07;;;3.20;;
33740;SDS011;20065;48.380;10.892;2022-09-09T02:43:00;5.67;;;3.10;;
33740;SDS011;20065;48.380;10.892;2022-09-09T02:46:02;8.57;;;2.90;;
33740;SDS011;20065;48.380;10.892;2022-09-09T02:54:57;8.30;;;3.17;;
33740;SDS011;20065;48.380;10.892;2022-09-09T02:57:50;5.97;;;3.07;;
33740;SDS011;20065;48.380;10.892;2022-09-09T03:00:39;6.50;;;3.23;;
33740;SDS011;20065;48.380;10.892;2022-09-09T03:03:26;4.20;;;2.80;;
33740;SDS011;20065;48.380;10.892;2022-09-09T03:06:13;4.67;;;2.70;;
33740;SDS011;20065;48.380;10.892;2022-09-09T03:09:00;10.90;;;3.30;;
33740;SDS011;20065;48.380;10.892;2022-09-09T03:11:48;10.00;;;3.73;;
33740;SDS011;20065;48.380;10.892;2022-09-09T03:14:35;5.83;;;2.50;;
33740;SDS011;20065;48.380;10.892;2022-09-09T03:17:22;6.13;;;3.10;;
33740;SDS011;20065;48.380;10.892;2022-09-09T03:20:13;8.80;;;3.40;;
33740;SDS011;20065;48.380;10.892;2022-09-09T03:22:59;6.87;;;3.17;;
33740;SDS011;20065;48.380;10.892;2022-09-09T03:25:46;5.47;;;3.10;;
33740;SDS011;20065;48.380;10.892;2022-09-09T03:28:35;5.67;;;2.83;;
33740;SDS011;20065;48.380;10.892;2022-09-09T03:31:22;8.00;;;3.13;;
33740;SDS011;20065;48.380;10.892;2022-09-09T03:34:09;3.70;;;2.37;;
33740;SDS011;20065;48.380;10.892;2022-09-09T03:36:55;9.13;;;3.13;;
33740;SDS011;20065;48.380;10.892;2022-09-09T03:39:41;7.00;;;3.43;;
33740;SDS011;20065;48.380;10.892;2022-09-09T03:42:28;6.10;;;3.30;;
33740;SDS011;20065;48.380;10.892;2022-09-09T03:45:17;5.20;;;2.70;;
33740;SDS011;20065;48.380;10.892;2022-09-09T03:48:03;5.70;;;3.07;;
33740;SDS011;20065;48.380;10.892;2022-09-09T03:50:51;7.70;;;3.00;;
33740;SDS011;20065;48.380;10.892;2022-09-09T03:53:39;4.53;;;2.63;;
33740;SDS011;20065;48.380;10.892;2022-09-09T03:56:26;6.43;;;2.53;;
33740;SDS011;20065;48.380;10.892;2022-09-09T03:59:12;5.90;;;3.17;;
33740;SDS011;20065;48.380;10.892;2022-09-09T04:02:01;5.90;;;3.20;;
33740;SDS011;20065;48.380;10.892;2022-09-09T04:04:47;4.70;;;2.77;;
33740;SDS011;20065;48.380;10.892;2022-09-09T04:07:34;5.27;;;2.60;;
33740;SDS011;20065;48.380;10.892;2022-09-09T04:10:21;6.73;;;2.60;;
33740;SDS011;20065;48.380;10.892;2022-09-09T04:13:07;6.30;;;3.20;;
33740;SDS011;20065;48.380;10.892;2022-09-09T04:15:54;7.10;;;3.00;;
33740;SDS011;20065;48.380;10.892;2022-09-09T04:18:42;9.30;;;2.97;;
33740;SDS011;20065;48.380;10.892;2022-09-09T04:21:28;6.40;;;2.93;;
33740;SDS011;20065;48.380;10.892;2022-09-09T04:24:14;6.97;;;3.63;;
33740;SDS011;20065;48.380;10.892;2022-09-09T04:27:02;4.43;;;2.63;;
33740;SDS011;20065;48.380;10.892;2022-09-09T04:29:49;5.50;;;2.60;;
33740;SDS011;20065;48.380;10.892;2022-09-09T04:32:35;6.70;;;2.63;;
33740;SDS011;20065;48.380;10.892;2022-09-09T04:35:22;6.00;;;2.90;;
33740;SDS011;20065;48.380;10.892;2022-09-09T04:38:09;6.47;;;3.17;;
33740;SDS011;20065;48.380;10.892;2022-09-09T04:40:55;5.43;;;2.47;;
33740;SDS011;20065;48.380;10.892;2022-09-09T04:43:41;3.93;;;2.40;;
33740;SDS011;20065;48.380;10.892;2022-09-09T04:46:28;4.63;;;2.43;;
33740;SDS011;20065;48.380;10.892;2022-09-09T04:49:16;6.63;;;3.07;;
33740;SDS011;20065;48.380;10.892;2022-09-09T04:52:03;7.30;;;3.10;;
33740;SDS011;20065;48.380;10.892;2022-09-09T04:54:51;4.10;;;2.20;;
33740;SDS011;20065;48.380;10.892;2022-09-09T04:57:39;5.60;;;2.57;;
33740;SDS011;20065;48.380;10.892;2022-09-09T05:00:31;6.83;;;3.00;;
33740;SDS011;20065;48.380;10.892;2022-09-09T05:03:17;6.43;;;2.50;;
33740;SDS011;20065;48.380;10.892;2022-09-09T05:06:09;5.40;;;2.10;;
33740;SDS011;20065;48.380;10.892;2022-09-09T05:08:56;5.40;;;2.60;;
33740;SDS011;20065;48.380;10.892;2022-09-09T05:11:46;5.10;;;2.50;;
33740;SDS011;20065;48.380;10.892;2022-09-09T05:14:43;6.27;;;2.47;;
33740;SDS011;20065;48.380;10.892;2022-09-09T05:17:30;7.23;;;2.80;;
33740;SDS011;20065;48.380;10.892;2022-09-09T05:20:16;7.10;;;2.10;;
33740;SDS011;20065;48.380;10.892;2022-09-09T05:23:02;6.03;;;2.13;;
33740;SDS011;20065;48.380;10.892;2022-09-09T05:25:54;7.33;;;2.50;;
33740;SDS011;20065;48.380;10.892;2022-09-09T05:28:42;8.43;;;2.47;;
33740;SDS011;20065;48.380;10.892;2022-09-09T05:31:29;5.23;;;2.87;;
33740;SDS011;20065;48.380;10.892;2022-09-09T05:34:16;5.10;;;2.57;;
33740;SDS011;20065;48.380;10.892;2022-09-09T05:37:03;7.17;;;3.00;;
33740;SDS011;20065;48.380;10.892;2022-09-09T05:39:51;10.27;;;3.33;;
33740;SDS011;20065;48.380;10.892;2022-09-09T05:42:37;6.80;;;2.80;;
33740;SDS011;20065;48.380;10.892;2022-09-09T05:45:24;6.70;;;2.40;;
33740;SDS011;20065;48.380;10.892;2022-09-09T05:48:10;3.40;;;1.60;;
33740;SDS011;20065;48.380;10.892;2022-09-09T05:50:57;4.50;;;1.77;;
33740;SDS011;20065;48.380;10.892;2022-09-09T05:53:45;7.20;;;2.10;;
33740;SDS011;20065;48.380;10.892;2022-09-09T05:56:32;7.93;;;1.80;;
33740;SDS011;20065;48.380;10.892;2022-09-09T05:59:19;10.27;;;2.27;;
33740;SDS011;20065;48.380;10.892;2022-09-09T06:02:07;5.60;;;1.93;;
33740;SDS011;20065;48.380;10.892;2022-09-09T06:04:56;6.60;;;2.20;;
33740;SDS011;20065;48.380;10.892;2022-09-09T06:07:43;6.67;;;2.17;;
33740;SDS011;20065;48.380;10.892;2022-09-09T06:10:30;4.87;;;1.83;;
33740;SDS011;20065;48.380;10.892;2022-09-09T06:13:16;5.87;;;2.03;;
33740;SDS011;20065;48.380;10.892;2022-09-09T06:16:03;12.03;;;3.17;;
33740;SDS011;20065;48.380;10.892;2022-09-09T06:18:50;5.30;;;2.30;;
33740;SDS011;20065;48.380;10.892;2022-09-09T06:21:37;5.03;;;2.10;;
33740;SDS011;20065;48.380;10.892;2022-09-09T06:24:26;8.53;;;2.50;;
33740;SDS011;20065;48.380;10.892;2022-09-09T06:27:13;10.73;;;1.90;;
33740;SDS011;20065;48.380;10.892;2022-09-09T06:29:59;5.73;;;2.00;;
33740;SDS011;20065;48.380;10.892;2022-09-09T06:32:47;5.57;;;1.77;;
33740;SDS011;20065;48.380;10.892;2022-09-09T06:35:35;4.00;;;2.03;;
33740;SDS011;20065;48.380;10.892;2022-09-09T06:38:21;3.70;;;2.00;;
33740;SDS011;20065;48.380;10.892;2022-09-09T06:41:09;9.20;;;2.07;;
33740;SDS011;20065;48.380;10.892;2022-09-09T06:43:57;4.30;;;1.90;;
33740;SDS011;20065;48.380;10.892;2022-09-09T06:46:52;4.63;;;2.30;;
33740;SDS011;20065;48.380;10.892;2022-09-09T06:49:38;7.40;;;2.70;;
33740;SDS011;20065;48.380;10.892;2022-09-09T06:52:28;5.40;;;2.10;;
33740;SDS011;20065;48.380;10.892;2022-09-09T06:55:15;6.73;;;2.33;;
33740;SDS011;20065;48.380;10.892;2022-09-09T06:58:07;4.90;;;2.17;;
33740;SDS011;20065;48.380;10.892;2022-09-09T07:01:04;5.87;;;2.40;;
33740;SDS011;20065;48.380;10.892;2022-09-09T07:03:53;6.93;;;2.13;;
33740;SDS011;20065;48.380;10.892;2022-09-09T07:06:44;8.90;;;2.67;;
33740;SDS011;20065;48.380;10.892;2022-09-09T07:09:44;4.97;;;2.30;;
33740;SDS011;20065;48.380;10.892;2022-09-09T07:12:31;7.97;;;3.10;;
33740;SDS011;20065;48.380;10.892;2022-09-09T07:15:19;6.80;;;2.23;;
33740;SDS011;20065;48.380;10.892;2022-09-09T07:18:07;5.67;;;1.93;;
33740;SDS011;20065;48.380;10.892;2022-09-09T07:20:55;6.00;;;2.30;;
33740;SDS011;20065;48.380;10.892;2022-09-09T07:23:43;6.27;;;2.10;;
33740;SDS011;20065;48.380;10.892;2022-09-09T07:26:30;6.10;;;2.30;;
33740;SDS011;20065;48.380;10.892;2022-09-09T07:29:19;7.60;;;2.00;;
33740;SDS011;20065;48.380;10.892;2022-09-09T07:32:05;5.20;;;2.53;;
33740;SDS011;20065;48.380;10.892;2022-09-09T07:34:55;6.13;;;1.90;;
33740;SDS011;20065;48.380;10.892;2022-09-09T07:37:44;4.10;;;1.90;;
33740;SDS011;20065;48.380;10.892;2022-09-09T07:40:33;4.73;;;2.00;;
33740;SDS011;20065;48.380;10.892;2022-09-09T07:43:25;7.20;;;2.53;;
33740;SDS011;20065;48.380;10.892;2022-09-09T07:46:13;5.63;;;2.27;;
33740;SDS011;20065;48.380;10.892;2022-09-09T07:49:02;5.27;;;2.30;;
33740;SDS011;20065;48.380;10.892;2022-09-09T07:51:52;4.97;;;2.07;;
33740;SDS011;20065;48.380;10.892;2022-09-09T07:54:38;4.13;;;2.03;;
33740;SDS011;20065;48.380;10.892;2022-09-09T07:57:25;6.50;;;2.00;;
33740;SDS011;20065;48.380;10.892;2022-09-09T08:00:14;4.30;;;2.17;;
33740;SDS011;20065;48.380;10.892;2022-09-09T08:03:04;10.83;;;4.37;;
33740;SDS011;20065;48.380;10.892;2022-09-09T08:05:51;6.83;;;1.67;;
33740;SDS011;20065;48.380;10.892;2022-09-09T08:08:38;4.23;;;1.80;;
33740;SDS011;20065;48.380;10.892;2022-09-09T08:11:27;3.67;;;1.73;;
33740;SDS011;20065;48.380;10.892;2022-09-09T08:14:15;4.70;;;2.00;;
33740;SDS011;20065;48.380;10.892;2022-09-09T08:17:01;3.90;;;1.77;;
33740;SDS011;20065;48.380;10.892;2022-09-09T08:19:50;5.13;;;2.00;;
33740;SDS011;20065;48.380;10.892;2022-09-09T08:22:41;5.27;;;1.83;;
33740;SDS011;20065;48.380;10.892;2022-09-09T08:25:27;5.50;;;2.70;;
33740;SDS011;20065;48.380;10.892;2022-09-09T08:28:14;6.10;;;1.90;;
33740;SDS011;20065;48.380;10.892;2022-09-09T08:34:01;4.70;;;1.63;;
33740;SDS011;20065;48.380;10.892;2022-09-09T08:36:50;6.93;;;1.80;;
33740;SDS011;20065;48.380;10.892;2022-09-09T08:39:40;8.00;;;2.30;;
33740;SDS011;20065;48.380;10.892;2022-09-09T08:42:38;4.80;;;1.50;;
33740;SDS011;20065;48.380;10.892;2022-09-09T08:45:37;3.57;;;1.53;;
33740;SDS011;20065;48.380;10.892;2022-09-09T08:51:40;4.70;;;1.20;;
33740;SDS011;20065;48.380;10.892;2022-09-09T08:54:28;4.70;;;1.60;;
33740;SDS011;20065;48.380;10.892;2022-09-09T08:57:24;3.60;;;1.20;;
33740;SDS011;20065;48.380;10.892;2022-09-09T09:00:13;4.10;;;1.33;;
33740;SDS011;20065;48.380;10.892;2022-09-09T09:12:57;3.40;;;1.10;;
33740;SDS011;20065;48.380;10.892;2022-09-09T09:15:46;3.77;;;1.00;;
33740;SDS011;20065;48.380;10.892;2022-09-09T09:18:35;4.30;;;1.40;;
33740;SDS011;20065;48.380;10.892;2022-09-09T09:30:23;3.40;;;1.10;;
33740;SDS011;20065;48.380;10.892;2022-09-09T09:36:39;6.50;;;1.67;;
33740;SDS011;20065;48.380;10.892;2022-09-09T09:39:31;4.20;;;1.33;;
33740;SDS011;20065;48.380;10.892;2022-09-09T09:42:27;4.40;;;1.23;;
33740;SDS011;20065;48.380;10.892;2022-09-09T09:45:31;3.60;;;1.40;;
33740;SDS011;20065;48.380;10.892;2022-09-09T09:48:23;4.80;;;1.37;;
33740;SDS011;20065;48.380;10.892;2022-09-09T09:51:13;4.03;;;1.17;;
33740;SDS011;20065;48.380;10.892;2022-09-09T09:54:08;4.50;;;1.37;;
33740;SDS011;20065;48.380;10.892;2022-09-09T09:57:13;5.67;;;1.37;;
33740;SDS011;20065;48.380;10.892;2022-09-09T10:00:17;6.13;;;1.97;;
33740;SDS011;20065;48.380;10.892;2022-09-09T10:03:28;4.03;;;1.50;;
33740;SDS011;20065;48.380;10.892;2022-09-09T10:06:28;10.20;;;1.60;;
33740;SDS011;20065;48.380;10.892;2022-09-09T10:09:23;6.33;;;1.53;;
33740;SDS011;20065;48.380;10.892;2022-09-09T10:18:21;4.40;;;1.40;;
33740;SDS011;20065;48.380;10.892;2022-09-09T10:21:46;3.90;;;1.50;;
33740;SDS011;20065;48.380;10.892;2022-09-09T10:31:19;8.83;;;1.37;;
33740;SDS011;20065;48.380;10.892;2022-09-09T10:53:24;4.67;;;1.30;;
33740;SDS011;20065;48.380;10.892;2022-09-09T10:56:22;3.20;;;1.20;;
33740;SDS011;20065;48.380;10.892;2022-09-09T10:59:19;6.10;;;1.70;;
33740;SDS011;20065;48.380;10.892;2022-09-09T11:05:12;8.00;;;1.93;;
33740;SDS011;20065;48.380;10.892;2022-09-09T11:14:39;8.07;;;1.70;;
33740;SDS011;20065;48.380;10.892;2022-09-09T11:17:39;4.97;;;1.93;;
33740;SDS011;20065;48.380;10.892;2022-09-09T11:20:32;8.43;;;1.90;;
33740;SDS011;20065;48.380;10.892;2022-09-09T11:23:22;4.17;;;1.27;;
33740;SDS011;20065;48.380;10.892;2022-09-09T11:26:31;6.47;;;1.80;;
33740;SDS011;20065;48.380;10.892;2022-09-09T11:32:40;5.67;;;1.50;;
33740;SDS011;20065;48.380;10.892;2022-09-09T11:45:11;4.50;;;1.27;;
33740;SDS011;20065;48.380;10.892;2022-09-09T11:48:10;3.70;;;1.30;;
33740;SDS011;20065;48.380;10.892;2022-09-09T11:57:27;4.97;;;1.50;;
33740;SDS011;20065;48.380;10.892;2022-09-09T12:00:31;4.30;;;1.30;;
33740;SDS011;20065;48.380;10.892;2022-09-09T12:09:50;4.43;;;1.50;;
33740;SDS011;20065;48.380;10.892;2022-09-09T12:12:42;4.40;;;1.50;;
33740;SDS011;20065;48.380;10.892;2022-09-09T12:15:28;6.27;;;1.53;;
33740;SDS011;20065;48.380;10.892;2022-09-09T12:18:25;4.67;;;1.30;;
33740;SDS011;20065;48.380;10.892;2022-09-09T12:27:45;7.70;;;1.70;;
33740;SDS011;20065;48.380;10.892;2022-09-09T12:30:41;5.30;;;1.67;;
33740;SDS011;20065;48.380;10.892;2022-09-09T12:33:49;7.17;;;1.50;;
33740;SDS011;20065;48.380;10.892;2022-09-09T12:36:35;6.87;;;1.70;;
33740;SDS011;20065;48.380;10.892;2022-09-09T12:39:31;5.17;;;1.60;;
33740;SDS011;20065;48.380;10.892;2022-09-09T12:42:21;4.23;;;1.57;;
33740;SDS011;20065;48.380;10.892;2022-09-09T12:45:16;3.90;;;1.37;;
33740;SDS011;20065;48.380;10.892;2022-09-09T12:48:04;8.40;;;2.67;;
33740;SDS011;20065;48.380;10.892;2022-09-09T12:50:53;4.50;;;1.40;;
33740;SDS011;20065;48.380;10.892;2022-09-09T12:53:41;7.30;;;1.40;;
33740;SDS011;20065;48.380;10.892;2022-09-09T12:56:29;9.90;;;1.97;;
33740;SDS011;20065;48.380;10.892;2022-09-09T12:59:21;4.53;;;1.33;;
33740;SDS011;20065;48.380;10.892;2022-09-09T13:02:22;7.47;;;1.40;;
33740;SDS011;20065;48.380;10.892;2022-09-09T13:05:18;3.90;;;1.20;;
33740;SDS011;20065;48.380;10.892;2022-09-09T13:08:08;5.07;;;1.47;;
33740;SDS011;20065;48.380;10.892;2022-09-09T13:10:57;6.57;;;1.23;;
33740;SDS011;20065;48.380;10.892;2022-09-09T13:13:50;6.40;;;1.80;;
33740;SDS011;20065;48.380;10.892;2022-09-09T13:16:38;4.20;;;1.30;;
33740;SDS011;20065;48.380;10.892;2022-09-09T13:19:24;5.00;;;1.40;;
33740;SDS011;20065;48.380;10.892;2022-09-09T13:22:20;5.07;;;1.30;;
33740;SDS011;20065;48.380;10.892;2022-09-09T13:25:28;3.70;;;1.30;;
33740;SDS011;20065;48.380;10.892;2022-09-09T13:28:19;9.50;;;1.57;;
33740;SDS011;20065;48.380;10.892;2022-09-09T13:31:19;3.53;;;1.30;;
33740;SDS011;20065;48.380;10.892;2022-09-09T13:34:13;4.17;;;1.27;;
33740;SDS011;20065;48.380;10.892;2022-09-09T13:37:23;5.67;;;1.70;;
33740;SDS011;20065;48.380;10.892;2022-09-09T13:40:21;8.70;;;1.53;;
33740;SDS011;20065;48.380;10.892;2022-09-09T13:43:17;4.20;;;1.10;;
33740;SDS011;20065;48.380;10.892;2022-09-09T13:49:22;4.13;;;1.00;;
33740;SDS011;20065;48.380;10.892;2022-09-09T13:52:10;4.40;;;1.10;;
33740;SDS011;20065;48.380;10.892;2022-09-09T13:55:04;5.00;;;1.30;;
33740;SDS011;20065;48.380;10.892;2022-09-09T14:00:42;4.43;;;1.20;;
33740;SDS011;20065;48.380;10.892;2022-09-09T14:03:29;3.97;;;1.00;;
33740;SDS011;20065;48.380;10.892;2022-09-09T14:06:15;4.63;;;1.40;;
33740;SDS011;20065;48.380;10.892;2022-09-09T14:09:07;4.17;;;1.40;;
33740;SDS011;20065;48.380;10.892;2022-09-09T14:11:56;7.97;;;2.20;;
33740;SDS011;20065;48.380;10.892;2022-09-09T14:14:43;9.10;;;1.80;;
33740;SDS011;20065;48.380;10.892;2022-09-09T14:17:29;9.50;;;2.40;;
33740;SDS011;20065;48.380;10.892;2022-09-09T14:20:16;11.30;;;3.10;;
33740;SDS011;20065;48.380;10.892;2022-09-09T14:23:03;5.87;;;1.43;;
33740;SDS011;20065;48.380;10.892;2022-09-09T14:25:49;4.80;;;1.77;;
33740;SDS011;20065;48.380;10.892;2022-09-09T14:28:36;4.90;;;1.50;;
33740;SDS011;20065;48.380;10.892;2022-09-09T14:31:22;3.63;;;1.27;;
33740;SDS011;20065;48.380;10.892;2022-09-09T14:34:09;6.97;;;2.13;;
33740;SDS011;20065;48.380;10.892;2022-09-09T14:36:56;6.83;;;1.77;;
33740;SDS011;20065;48.380;10.892;2022-09-09T14:39:42;7.40;;;1.50;;
33740;SDS011;20065;48.380;10.892;2022-09-09T14:42:29;6.37;;;2.37;;
33740;SDS011;20065;48.380;10.892;2022-09-09T14:45:15;4.07;;;1.60;;
33740;SDS011;20065;48.380;10.892;2022-09-09T14:48:02;5.10;;;2.13;;
33740;SDS011;20065;48.380;10.892;2022-09-09T14:50:49;3.13;;;1.70;;
33740;SDS011;20065;48.380;10.892;2022-09-09T14:53:35;5.57;;;1.60;;
33740;SDS011;20065;48.380;10.892;2022-09-09T14:56:22;5.33;;;1.90;;
33740;SDS011;20065;48.380;10.892;2022-09-09T14:59:10;4.20;;;1.77;;
33740;SDS011;20065;48.380;10.892;2022-09-09T15:01:56;4.70;;;1.87;;
33740;SDS011;20065;48.380;10.892;2022-09-09T15:04:42;4.73;;;1.50;;
33740;SDS011;20065;48.380;10.892;2022-09-09T15:07:29;4.17;;;1.60;;
33740;SDS011;20065;48.380;10.892;2022-09-09T15:10:17;4.40;;;1.83;;
33740;SDS011;20065;48.380;10.892;2022-09-09T15:13:03;6.53;;;2.23;;
33740;SDS011;20065;48.380;10.892;2022-09-09T15:15:50;3.67;;;1.40;;
33740;SDS011;20065;48.380;10.892;2022-09-09T15:18:36;4.83;;;1.83;;
33740;SDS011;20065;48.380;10.892;2022-09-09T15:21:29;5.10;;;1.80;;
33740;SDS011;20065;48.380;10.892;2022-09-09T15:24:17;5.80;;;1.67;;
33740;SDS011;20065;48.380;10.892;2022-09-09T15:27:03;5.97;;;1.33;;
33740;SDS011;20065;48.380;10.892;2022-09-09T15:29:50;5.40;;;1.60;;
33740;SDS011;20065;48.380;10.892;2022-09-09T15:32:37;3.60;;;1.80;;
33740;SDS011;20065;48.380;10.892;2022-09-09T15:35:23;5.37;;;2.00;;
33740;SDS011;20065;48.380;10.892;2022-09-09T15:38:10;8.20;;;1.53;;
33740;SDS011;20065;48.380;10.892;2022-09-09T15:40:57;3.40;;;1.47;;
33740;SDS011;20065;48.380;10.892;2022-09-09T15:43:48;6.53;;;2.37;;
33740;SDS011;20065;48.380;10.892;2022-09-09T15:46:36;8.67;;;2.10;;
33740;SDS011;20065;48.380;10.892;2022-09-09T15:49:24;3.70;;;1.90;;
33740;SDS011;20065;48.380;10.892;2022-09-09T15:52:12;7.43;;;2.10;;
33740;SDS011;20065;48.380;10.892;2022-09-09T15:54:58;5.13;;;2.00;;
33740;SDS011;20065;48.380;10.892;2022-09-09T15:57:46;4.70;;;2.10;;
33740;SDS011;20065;48.380;10.892;2022-09-09T16:00:32;4.10;;;1.70;;
33740;SDS011;20065;48.380;10.892;2022-09-09T16:03:19;5.10;;;1.60;;
33740;SDS011;20065;48.380;10.892;2022-09-09T16:06:06;4.23;;;1.40;;
33740;SDS011;20065;48.380;10.892;2022-09-09T16:08:52;5.20;;;1.83;;
33740;SDS011;20065;48.380;10.892;2022-09-09T16:11:39;6.53;;;1.50;;
33740;SDS011;20065;48.380;10.892;2022-09-09T16:14:26;3.53;;;1.40;;
33740;SDS011;20065;48.380;10.892;2022-09-09T16:17:12;5.63;;;1.93;;
33740;SDS011;20065;48.380;10.892;2022-09-09T16:19:59;4.00;;;1.27;;
33740;SDS011;20065;48.380;10.892;2022-09-09T16:22:45;7.20;;;2.07;;
33740;SDS011;20065;48.380;10.892;2022-09-09T16:25:32;2.73;;;1.27;;
33740;SDS011;20065;48.380;10.892;2022-09-09T16:28:18;4.63;;;1.37;;
33740;SDS011;20065;48.380;10.892;2022-09-09T16:31:05;5.20;;;2.50;;
33740;SDS011;20065;48.380;10.892;2022-09-09T16:33:55;5.67;;;1.23;;
33740;SDS011;20065;48.380;10.892;2022-09-09T16:36:42;3.70;;;1.93;;
33740;SDS011;20065;48.380;10.892;2022-09-09T16:39:29;4.90;;;1.90;;
33740;SDS011;20065;48.380;10.892;2022-09-09T16:42:15;4.57;;;1.70;;
33740;SDS011;20065;48.380;10.892;2022-09-09T16:45:02;5.80;;;1.70;;
33740;SDS011;20065;48.380;10.892;2022-09-09T16:47:48;2.93;;;1.20;;
33740;SDS011;20065;48.380;10.892;2022-09-09T16:50:35;4.00;;;1.50;;
33740;SDS011;20065;48.380;10.892;2022-09-09T16:53:21;4.90;;;1.47;;
33740;SDS011;20065;48.380;10.892;2022-09-09T16:56:07;4.50;;;1.60;;
33740;SDS011;20065;48.380;10.892;2022-09-09T16:58:56;4.63;;;1.73;;
33740;SDS011;20065;48.380;10.892;2022-09-09T17:01:44;6.07;;;2.57;;
33740;SDS011;20065;48.380;10.892;2022-09-09T17:04:32;5.10;;;2.63;;
33740;SDS011;20065;48.380;10.892;2022-09-09T17:07:18;5.47;;;1.70;;
33740;SDS011;20065;48.380;10.892;2022-09-09T17:10:05;4.10;;;1.50;;
33740;SDS011;20065;48.380;10.892;2022-09-09T17:12:52;5.13;;;2.00;;
33740;SDS011;20065;48.380;10.892;2022-09-09T17:15:39;4.80;;;2.00;;
33740;SDS011;20065;48.380;10.892;2022-09-09T17:18:28;6.73;;;1.83;;
33740;SDS011;20065;48.380;10.892;2022-09-09T17:21:15;3.87;;;1.70;;
33740;SDS011;20065;48.380;10.892;2022-09-09T17:24:03;3.47;;;1.80;;
33740;SDS011;20065;48.380;10.892;2022-09-09T17:26:53;5.00;;;1.80;;
33740;SDS011;20065;48.380;10.892;2022-09-09T17:29:39;4.23;;;1.83;;
33740;SDS011;20065;48.380;10.892;2022-09-09T17:32:25;4.60;;;1.93;;
33740;SDS011;20065;48.380;10.892;2022-09-09T17:35:12;5.83;;;2.10;;
33740;SDS011;20065;48.380;10.892;2022-09-09T17:37:59;4.63;;;2.43;;
33740;SDS011;20065;48.380;10.892;2022-09-09T17:40:45;4.73;;;2.00;;
33740;SDS011;20065;48.380;10.892;2022-09-09T17:43:31;4.87;;;2.20;;
33740;SDS011;20065;48.380;10.892;2022-09-09T17:46:19;7.33;;;2.30;;
33740;SDS011;20065;48.380;10.892;2022-09-09T17:49:16;6.20;;;2.33;;
33740;SDS011;20065;48.380;10.892;2022-09-09T17:52:05;6.93;;;2.47;;
33740;SDS011;20065;48.380;10.892;2022-09-09T17:54:54;6.03;;;1.93;;
33740;SDS011;20065;48.380;10.892;2022-09-09T17:57:42;6.00;;;1.87;;
33740;SDS011;20065;48.380;10.892;2022-09-09T18:00:28;3.33;;;1.63;;
33740;SDS011;20065;48.380;10.892;2022-09-09T18:03:15;3.90;;;1.93;;
33740;SDS011;20065;48.380;10.892;2022-09-09T18:06:02;7.17;;;2.93;;
33740;SDS011;20065;48.380;10.892;2022-09-09T18:08:52;3.50;;;1.13;;
33740;SDS011;20065;48.380;10.892;2022-09-09T18:11:42;7.57;;;1.47;;
33740;SDS011;20065;48.380;10.892;2022-09-09T18:14:30;5.90;;;1.43;;
33740;SDS011;20065;48.380;10.892;2022-09-09T18:17:17;9.00;;;2.20;;
33740;SDS011;20065;48.380;10.892;2022-09-09T18:20:04;8.33;;;1.87;;
33740;SDS011;20065;48.380;10.892;2022-09-09T18:22:50;3.60;;;1.67;;
33740;SDS011;20065;48.380;10.892;2022-09-09T18:25:37;7.80;;;1.77;;
33740;SDS011;20065;48.380;10.892;2022-09-09T18:28:26;3.40;;;1.30;;
33740;SDS011;20065;48.380;10.892;2022-09-09T18:31:13;3.90;;;1.30;;
33740;SDS011;20065;48.380;10.892;2022-09-09T18:34:01;5.67;;;2.03;;
33740;SDS011;20065;48.380;10.892;2022-09-09T18:36:49;5.97;;;1.77;;
33740;SDS011;20065;48.380;10.892;2022-09-09T18:39:38;7.37;;;1.80;;
33740;SDS011;20065;48.380;10.892;2022-09-09T18:42:24;3.60;;;1.73;;
33740;SDS011;20065;48.380;10.892;2022-09-09T18:45:11;4.07;;;1.67;;
33740;SDS011;20065;48.380;10.892;2022-09-09T18:47:57;5.57;;;1.90;;
33740;SDS011;20065;48.380;10.892;2022-09-09T18:50:43;4.80;;;1.80;;
33740;SDS011;20065;48.380;10.892;2022-09-09T18:53:29;7.60;;;1.97;;
33740;SDS011;20065;48.380;10.892;2022-09-09T18:56:15;4.80;;;1.80;;
33740;SDS011;20065;48.380;10.892;2022-09-09T18:59:03;7.07;;;2.30;;
33740;SDS011;20065;48.380;10.892;2022-09-09T19:01:51;6.03;;;2.10;;
33740;SDS011;20065;48.380;10.892;2022-09-09T19:04:38;4.63;;;1.53;;
33740;SDS011;20065;48.380;10.892;2022-09-09T19:07:27;7.37;;;2.03;;
33740;SDS011;20065;48.380;10.892;2022-09-09T19:10:14;3.87;;;1.80;;
33740;SDS011;20065;48.380;10.892;2022-09-09T19:13:00;5.13;;;1.83;;
33740;SDS011;20065;48.380;10.892;2022-09-09T19:15:46;5.90;;;2.47;;
33740;SDS011;20065;48.380;10.892;2022-09-09T19:18:33;4.93;;;1.70;;
33740;SDS011;20065;48.380;10.892;2022-09-09T19:21:22;4.00;;;1.83;;
33740;SDS011;20065;48.380;10.892;2022-09-09T19:24:20;6.17;;;2.43;;
33740;SDS011;20065;48.380;10.892;2022-09-09T19:27:08;6.50;;;2.33;;
33740;SDS011;20065;48.380;10.892;2022-09-09T19:29:54;4.07;;;2.43;;
33740;SDS011;20065;48.380;10.892;2022-09-09T19:32:41;5.77;;;2.27;;
33740;SDS011;20065;48.380;10.892;2022-09-09T19:35:27;7.40;;;2.20;;
33740;SDS011;20065;48.380;10.892;2022-09-09T19:38:13;6.03;;;2.60;;